sensor_id;sensor_type;location;lat;lon;timestamp;pressure;altitude;pressure_sealevel;temperature;humidity
76730;BME280;65653;53.106;18.046;2023-04-01T00:00:33;98870.61;;;8.88;94.44
76730;BME280;65653;53.106;18.046;2023-04-01T00:03:20;98872.08;;;8.89;94.48
76730;BME280;65653;53.106;18.046;2023-04-01T00:05:52;98871.07;;;8.89;94.78
76730;BME280;65653;53.106;18.046;2023-04-01T00:08:18;98872.77;;;8.88;94.89
76730;BME280;65653;53.106;18.046;2023-04-01T00:10:44;98869.25;;;8.89;94.79
76730;BME280;65653;53.106;18.046;2023-04-01T00:13:11;98871.98;;;8.90;94.82
76730;BME280;65653;53.106;18.046;2023-04-01T00:15:37;98868.73;;;8.90;94.80
76730;BME280;65653;53.106;18.046;2023-04-01T00:18:03;98864.66;;;8.91;94.78
76730;BME280;65653;53.106;18.046;2023-04-01T00:20:30;98862.41;;;8.91;94.72
76730;BME280;65653;53.106;18.046;2023-04-01T00:22:56;98864.92;;;8.93;94.54
76730;BME280;65653;53.106;18.046;2023-04-01T00:25:23;98860.36;;;9.00;94.85
76730;BME280;65653;53.106;18.046;2023-04-01T00:27:50;98860.59;;;9.09;95.05
76730;BME280;65653;53.106;18.046;2023-04-01T00:30:16;98857.24;;;9.13;95.01
76730;BME280;65653;53.106;18.046;2023-04-01T00:32:42;98859.48;;;9.17;94.94
76730;BME280;65653;53.106;18.046;2023-04-01T00:35:08;98860.25;;;9.19;94.93
76730;BME280;65653;53.106;18.046;2023-04-01T00:37:35;98860.02;;;9.23;94.87
76730;BME280;65653;53.106;18.046;2023-04-01T00:40:24;98863.79;;;9.24;94.99
76730;BME280;65653;53.106;18.046;2023-04-01T00:42:51;98860.95;;;9.18;94.58
76730;BME280;65653;53.106;18.046;2023-04-01T00:47:50;98854.05;;;9.13;94.52
76730;BME280;65653;53.106;18.046;2023-04-01T00:50:16;98859.64;;;9.19;94.73
76730;BME280;65653;53.106;18.046;2023-04-01T00:52:42;98856.73;;;9.17;94.50
76730;BME280;65653;53.106;18.046;2023-04-01T00:55:09;98858.89;;;9.22;94.77
76730;BME280;65653;53.106;18.046;2023-04-01T00:57:40;98856.11;;;9.28;94.74
76730;BME280;65653;53.106;18.046;2023-04-01T01:00:10;98855.30;;;9.32;94.70
76730;BME280;65653;53.106;18.046;2023-04-01T01:02:41;98853.50;;;9.35;94.76
76730;BME280;65653;53.106;18.046;2023-04-01T01:05:07;98855.13;;;9.32;94.27
76730;BME280;65653;53.106;18.046;2023-04-01T01:07:42;98854.73;;;9.29;94.16
76730;BME280;65653;53.106;18.046;2023-04-01T01:10:13;98852.73;;;9.29;94.19
76730;BME280;65653;53.106;18.046;2023-04-01T01:16:04;98845.14;;;9.38;94.55
76730;BME280;65653;53.106;18.046;2023-04-01T01:18:39;98844.73;;;9.47;94.87
76730;BME280;65653;53.106;18.046;2023-04-01T01:26:50;98845.69;;;9.32;94.07
76730;BME280;65653;53.106;18.046;2023-04-01T01:32:34;98849.89;;;9.33;94.32
76730;BME280;65653;53.106;18.046;2023-04-01T01:35:30;98850.64;;;9.34;94.40
76730;BME280;65653;53.106;18.046;2023-04-01T01:38:02;98850.14;;;9.31;94.35
76730;BME280;65653;53.106;18.046;2023-04-01T01:40:29;98852.16;;;9.30;94.40
76730;BME280;65653;53.106;18.046;2023-04-01T01:43:00;98851.02;;;9.24;94.51
76730;BME280;65653;53.106;18.046;2023-04-01T01:45:27;98848.52;;;9.11;94.87
76730;BME280;65653;53.106;18.046;2023-04-01T01:47:55;98848.11;;;9.03;94.65
76730;BME280;65653;53.106;18.046;2023-04-01T01:50:24;98845.24;;;8.98;94.81
76730;BME280;65653;53.106;18.046;2023-04-01T01:53:01;98843.95;;;8.93;94.74
76730;BME280;65653;53.106;18.046;2023-04-01T01:55:35;98843.85;;;8.91;94.82
76730;BME280;65653;53.106;18.046;2023-04-01T01:58:07;98842.98;;;8.91;94.81
76730;BME280;65653;53.106;18.046;2023-04-01T02:00:36;98843.70;;;8.87;94.84
76730;BME280;65653;53.106;18.046;2023-04-01T02:03:03;98843.89;;;8.86;94.75
76730;BME280;65653;53.106;18.046;2023-04-01T02:05:30;98842.40;;;8.88;94.90
76730;BME280;65653;53.106;18.046;2023-04-01T02:08:13;98845.48;;;8.90;94.96
76730;BME280;65653;53.106;18.046;2023-04-01T02:10:47;98846.02;;;8.89;95.01
76730;BME280;65653;53.106;18.046;2023-04-01T02:13:21;98844.55;;;8.88;94.99
76730;BME280;65653;53.106;18.046;2023-04-01T02:15:55;98848.74;;;8.83;94.74
76730;BME280;65653;53.106;18.046;2023-04-01T02:18:22;98851.02;;;8.79;94.76
76730;BME280;65653;53.106;18.046;2023-04-01T02:20:49;98853.91;;;8.76;94.72
76730;BME280;65653;53.106;18.046;2023-04-01T02:23:15;98851.80;;;8.75;94.74
76730;BME280;65653;53.106;18.046;2023-04-01T02:25:42;98851.58;;;8.71;94.79
76730;BME280;65653;53.106;18.046;2023-04-01T02:28:13;98851.28;;;8.70;94.78
76730;BME280;65653;53.106;18.046;2023-04-01T02:30:43;98851.24;;;8.66;94.64
76730;BME280;65653;53.106;18.046;2023-04-01T02:33:10;98853.38;;;8.66;94.75
76730;BME280;65653;53.106;18.046;2023-04-01T02:35:36;98854.84;;;8.62;94.81
76730;BME280;65653;53.106;18.046;2023-04-01T02:38:04;98856.96;;;8.63;94.99
76730;BME280;65653;53.106;18.046;2023-04-01T02:40:46;98856.49;;;8.60;94.78
76730;BME280;65653;53.106;18.046;2023-04-01T02:43:16;98857.37;;;8.53;94.70
76730;BME280;65653;53.106;18.046;2023-04-01T02:45:45;98862.08;;;8.47;94.76
76730;BME280;65653;53.106;18.046;2023-04-01T02:48:11;98861.29;;;8.44;94.95
76730;BME280;65653;53.106;18.046;2023-04-01T02:50:39;98865.19;;;8.42;95.14
76730;BME280;65653;53.106;18.046;2023-04-01T02:53:06;98867.39;;;8.37;95.24
76730;BME280;65653;53.106;18.046;2023-04-01T02:55:33;98867.15;;;8.33;95.26
76730;BME280;65653;53.106;18.046;2023-04-01T02:57:59;98872.34;;;8.30;95.15
76730;BME280;65653;53.106;18.046;2023-04-01T03:00:25;98873.13;;;8.29;95.20
76730;BME280;65653;53.106;18.046;2023-04-01T03:02:52;98874.05;;;8.24;95.48
76730;BME280;65653;53.106;18.046;2023-04-01T03:05:18;98877.52;;;8.18;95.38
76730;BME280;65653;53.106;18.046;2023-04-01T03:07:44;98878.80;;;8.16;95.31
76730;BME280;65653;53.106;18.046;2023-04-01T03:10:11;98881.41;;;8.19;95.36
76730;BME280;65653;53.106;18.046;2023-04-01T03:12:37;98882.67;;;8.24;95.44
76730;BME280;65653;53.106;18.046;2023-04-01T03:15:03;98886.16;;;8.23;95.34
76730;BME280;65653;53.106;18.046;2023-04-01T03:17:30;98885.09;;;8.21;95.32
76730;BME280;65653;53.106;18.046;2023-04-01T03:19:56;98888.39;;;8.21;95.42
76730;BME280;65653;53.106;18.046;2023-04-01T03:22:22;98885.19;;;8.17;95.26
76730;BME280;65653;53.106;18.046;2023-04-01T03:24:48;98887.45;;;8.16;95.32
76730;BME280;65653;53.106;18.046;2023-04-01T03:27:14;98888.58;;;8.12;95.41
76730;BME280;65653;53.106;18.046;2023-04-01T03:29:41;98892.89;;;8.09;95.37
76730;BME280;65653;53.106;18.046;2023-04-01T03:32:07;98896.55;;;8.08;95.38
76730;BME280;65653;53.106;18.046;2023-04-01T03:34:33;98895.32;;;8.03;95.62
76730;BME280;65653;53.106;18.046;2023-04-01T03:36:58;98901.43;;;7.95;95.47
76730;BME280;65653;53.106;18.046;2023-04-01T03:39:24;98902.30;;;7.91;95.53
76730;BME280;65653;53.106;18.046;2023-04-01T03:41:50;98899.70;;;7.88;95.54
76730;BME280;65653;53.106;18.046;2023-04-01T03:44:16;98902.55;;;7.88;95.65
76730;BME280;65653;53.106;18.046;2023-04-01T03:46:42;98900.48;;;7.83;95.70
76730;BME280;65653;53.106;18.046;2023-04-01T03:49:09;98903.77;;;7.78;95.71
76730;BME280;65653;53.106;18.046;2023-04-01T03:51:39;98907.27;;;7.75;95.75
76730;BME280;65653;53.106;18.046;2023-04-01T03:54:06;98910.77;;;7.69;95.69
76730;BME280;65653;53.106;18.046;2023-04-01T03:56:32;98910.63;;;7.63;95.57
76730;BME280;65653;53.106;18.046;2023-04-01T03:59:02;98911.16;;;7.57;95.80
76730;BME280;65653;53.106;18.046;2023-04-01T04:01:28;98916.23;;;7.55;95.87
76730;BME280;65653;53.106;18.046;2023-04-01T04:03:54;98916.77;;;7.54;95.86
76730;BME280;65653;53.106;18.046;2023-04-01T04:06:20;98919.88;;;7.57;95.81
76730;BME280;65653;53.106;18.046;2023-04-01T04:08:45;98925.47;;;7.56;95.79
76730;BME280;65653;53.106;18.046;2023-04-01T04:11:11;98930.77;;;7.51;95.57
76730;BME280;65653;53.106;18.046;2023-04-01T04:13:38;98928.64;;;7.48;95.55
76730;BME280;65653;53.106;18.046;2023-04-01T04:16:05;98936.52;;;7.48;95.54
76730;BME280;65653;53.106;18.046;2023-04-01T04:18:30;98939.45;;;7.48;95.60
76730;BME280;65653;53.106;18.046;2023-04-01T04:20:56;98940.09;;;7.43;95.47
76730;BME280;65653;53.106;18.046;2023-04-01T04:23:23;98938.64;;;7.37;95.36
76730;BME280;65653;53.106;18.046;2023-04-01T04:26:00;98944.85;;;7.30;95.40
76730;BME280;65653;53.106;18.046;2023-04-01T04:28:27;98950.61;;;7.21;95.45
76730;BME280;65653;53.106;18.046;2023-04-01T04:30:54;98953.02;;;7.13;95.62
76730;BME280;65653;53.106;18.046;2023-04-01T04:33:21;98954.23;;;7.10;95.75
76730;BME280;65653;53.106;18.046;2023-04-01T04:35:48;98957.14;;;7.07;95.73
76730;BME280;65653;53.106;18.046;2023-04-01T04:38:15;98958.33;;;7.07;95.83
76730;BME280;65653;53.106;18.046;2023-04-01T04:40:42;98961.01;;;7.06;95.88
76730;BME280;65653;53.106;18.046;2023-04-01T04:43:12;98966.45;;;7.04;95.93
76730;BME280;65653;53.106;18.046;2023-04-01T04:45:38;98964.06;;;7.05;95.96
76730;BME280;65653;53.106;18.046;2023-04-01T04:48:04;98964.89;;;7.02;95.94
76730;BME280;65653;53.106;18.046;2023-04-01T04:50:31;98973.45;;;6.96;95.97
76730;BME280;65653;53.106;18.046;2023-04-01T04:52:57;98974.34;;;6.92;96.11
76730;BME280;65653;53.106;18.046;2023-04-01T04:55:23;98981.63;;;6.86;96.23
76730;BME280;65653;53.106;18.046;2023-04-01T04:57:49;98982.45;;;6.84;96.15
76730;BME280;65653;53.106;18.046;2023-04-01T05:00:15;98988.60;;;6.81;96.17
76730;BME280;65653;53.106;18.046;2023-04-01T05:02:41;98991.80;;;6.73;96.21
76730;BME280;65653;53.106;18.046;2023-04-01T05:05:07;98992.73;;;6.67;96.16
76730;BME280;65653;53.106;18.046;2023-04-01T05:07:33;98994.12;;;6.61;96.24
76730;BME280;65653;53.106;18.046;2023-04-01T05:09:59;98995.90;;;6.60;96.26
76730;BME280;65653;53.106;18.046;2023-04-01T05:12:25;98997.95;;;6.62;96.28
76730;BME280;65653;53.106;18.046;2023-04-01T05:14:52;99000.94;;;6.61;96.15
76730;BME280;65653;53.106;18.046;2023-04-01T05:17:17;99000.45;;;6.58;96.12
76730;BME280;65653;53.106;18.046;2023-04-01T05:19:43;99007.05;;;6.58;96.21
76730;BME280;65653;53.106;18.046;2023-04-01T05:22:09;99009.88;;;6.57;96.17
76730;BME280;65653;53.106;18.046;2023-04-01T05:24:36;99013.44;;;6.52;95.92
76730;BME280;65653;53.106;18.046;2023-04-01T05:27:02;99021.74;;;6.50;95.92
76730;BME280;65653;53.106;18.046;2023-04-01T05:29:27;99022.08;;;6.43;95.75
76730;BME280;65653;53.106;18.046;2023-04-01T05:31:54;99023.86;;;6.33;95.81
76730;BME280;65653;53.106;18.046;2023-04-01T05:34:21;99026.48;;;6.26;95.83
76730;BME280;65653;53.106;18.046;2023-04-01T05:36:47;99027.48;;;6.18;95.84
76730;BME280;65653;53.106;18.046;2023-04-01T05:39:12;99027.34;;;6.12;96.07
76730;BME280;65653;53.106;18.046;2023-04-01T05:41:39;99030.73;;;6.11;96.20
76730;BME280;65653;53.106;18.046;2023-04-01T05:44:06;99032.55;;;6.11;96.35
76730;BME280;65653;53.106;18.046;2023-04-01T05:46:32;99033.02;;;6.10;96.38
76730;BME280;65653;53.106;18.046;2023-04-01T05:48:57;99033.16;;;6.13;96.35
76730;BME280;65653;53.106;18.046;2023-04-01T05:51:23;99036.04;;;6.16;96.41
76730;BME280;65653;53.106;18.046;2023-04-01T05:53:49;99038.80;;;6.19;96.25
76730;BME280;65653;53.106;18.046;2023-04-01T05:56:15;99038.84;;;6.26;96.17
76730;BME280;65653;53.106;18.046;2023-04-01T05:58:42;99045.94;;;6.34;96.04
76730;BME280;65653;53.106;18.046;2023-04-01T06:01:10;99045.36;;;6.41;96.06
76730;BME280;65653;53.106;18.046;2023-04-01T06:03:36;99047.62;;;6.41;95.84
76730;BME280;65653;53.106;18.046;2023-04-01T06:06:03;99052.44;;;6.37;95.60
76730;BME280;65653;53.106;18.046;2023-04-01T06:08:32;99055.80;;;6.33;95.31
76730;BME280;65653;53.106;18.046;2023-04-01T06:18:52;99067.34;;;6.25;94.58
76730;BME280;65653;53.106;18.046;2023-04-01T06:22:01;99062.46;;;6.16;94.61
76730;BME280;65653;53.106;18.046;2023-04-01T06:27:25;99069.94;;;6.06;94.68
76730;BME280;65653;53.106;18.046;2023-04-01T06:41:00;99082.75;;;6.29;94.52
76730;BME280;65653;53.106;18.046;2023-04-01T06:46:52;99085.65;;;6.35;94.14
76730;BME280;65653;53.106;18.046;2023-04-01T06:54:55;99092.77;;;6.51;93.43
76730;BME280;65653;53.106;18.046;2023-04-01T07:00:00;99098.30;;;6.66;93.17
76730;BME280;65653;53.106;18.046;2023-04-01T07:02:43;99099.64;;;6.73;93.27
76730;BME280;65653;53.106;18.046;2023-04-01T07:05:12;99102.73;;;6.78;92.74
76730;BME280;65653;53.106;18.046;2023-04-01T07:07:47;99106.46;;;6.79;92.66
76730;BME280;65653;53.106;18.046;2023-04-01T07:10:22;99106.74;;;6.84;92.66
76730;BME280;65653;53.106;18.046;2023-04-01T07:12:53;99110.27;;;6.88;92.63
76730;BME280;65653;53.106;18.046;2023-04-01T07:15:40;99110.88;;;6.93;92.65
76730;BME280;65653;53.106;18.046;2023-04-01T07:18:14;99118.27;;;7.02;92.58
76730;BME280;65653;53.106;18.046;2023-04-01T07:20:42;99119.02;;;7.10;92.23
76730;BME280;65653;53.106;18.046;2023-04-01T07:23:16;99121.77;;;7.11;91.74
76730;BME280;65653;53.106;18.046;2023-04-01T07:25:51;99119.36;;;7.07;91.34
76730;BME280;65653;53.106;18.046;2023-04-01T07:28:35;99121.09;;;7.12;91.65
76730;BME280;65653;53.106;18.046;2023-04-01T07:34:35;99121.98;;;7.19;91.40
76730;BME280;65653;53.106;18.046;2023-04-01T08:04:34;99169.74;;;6.99;90.24
76730;BME280;65653;53.106;18.046;2023-04-01T08:22:04;99203.11;;;6.69;90.26
76730;BME280;65653;53.106;18.046;2023-04-01T08:30:30;99210.21;;;6.58;91.04
76730;BME280;65653;53.106;18.046;2023-04-01T08:33:25;99209.48;;;6.59;90.85
76730;BME280;65653;53.106;18.046;2023-04-01T09:10:08;99241.11;;;7.41;88.54
76730;BME280;65653;53.106;18.046;2023-04-01T09:27:26;99256.16;;;7.90;86.21
76730;BME280;65653;53.106;18.046;2023-04-01T10:17:49;99306.74;;;8.51;82.26
76730;BME280;65653;53.106;18.046;2023-04-01T10:24:09;99313.55;;;8.52;82.89
76730;BME280;65653;53.106;18.046;2023-04-01T10:32:50;99326.32;;;8.08;82.16
76730;BME280;65653;53.106;18.046;2023-04-01T10:43:10;99328.32;;;8.12;81.69
76730;BME280;65653;53.106;18.046;2023-04-01T10:51:38;99323.35;;;8.48;82.44
76730;BME280;65653;53.106;18.046;2023-04-01T10:54:48;99327.79;;;8.60;81.64
76730;BME280;65653;53.106;18.046;2023-04-01T11:00:39;99332.51;;;8.67;80.36
76730;BME280;65653;53.106;18.046;2023-04-01T11:25:56;99357.56;;;8.77;80.44
76730;BME280;65653;53.106;18.046;2023-04-01T11:28:41;99364.46;;;8.60;79.39
76730;BME280;65653;53.106;18.046;2023-04-01T11:31:39;99368.42;;;8.54;80.19
76730;BME280;65653;53.106;18.046;2023-04-01T11:37:05;99372.20;;;8.63;80.60
76730;BME280;65653;53.106;18.046;2023-04-01T11:42:34;99383.40;;;8.84;79.88
76730;BME280;65653;53.106;18.046;2023-04-01T11:48:28;99388.08;;;8.80;79.01
76730;BME280;65653;53.106;18.046;2023-04-01T11:56:16;99392.85;;;8.68;78.63
76730;BME280;65653;53.106;18.046;2023-04-01T12:07:40;99405.11;;;9.43;75.43
76730;BME280;65653;53.106;18.046;2023-04-01T12:13:05;99403.74;;;9.69;74.63
76730;BME280;65653;53.106;18.046;2023-04-01T12:16:06;99406.41;;;9.80;74.51
76730;BME280;65653;53.106;18.046;2023-04-01T12:18:58;99408.52;;;9.88;73.95
76730;BME280;65653;53.106;18.046;2023-04-01T12:21:36;99412.53;;;9.84;73.83
76730;BME280;65653;53.106;18.046;2023-04-01T12:24:29;99414.29;;;9.96;74.91
76730;BME280;65653;53.106;18.046;2023-04-01T12:27:26;99416.48;;;10.25;74.14
76730;BME280;65653;53.106;18.046;2023-04-01T12:35:37;99423.54;;;10.16;72.16
76730;BME280;65653;53.106;18.046;2023-04-01T12:41:14;99430.42;;;9.88;74.80
76730;BME280;65653;53.106;18.046;2023-04-01T12:44:11;99432.54;;;9.86;74.44
76730;BME280;65653;53.106;18.046;2023-04-01T12:55:52;99442.17;;;10.42;73.85
76730;BME280;65653;53.106;18.046;2023-04-01T13:01:34;99453.30;;;10.62;72.63
76730;BME280;65653;53.106;18.046;2023-04-01T13:16:13;99468.65;;;10.39;71.26
76730;BME280;65653;53.106;18.046;2023-04-01T13:27:18;99488.77;;;9.94;72.29
76730;BME280;65653;53.106;18.046;2023-04-01T13:38:52;99497.45;;;9.57;72.05
76730;BME280;65653;53.106;18.046;2023-04-01T13:44:19;99503.45;;;9.48;72.63
76730;BME280;65653;53.106;18.046;2023-04-01T13:47:02;99509.39;;;9.44;71.98
76730;BME280;65653;53.106;18.046;2023-04-01T13:52:30;99515.23;;;9.05;72.67
76730;BME280;65653;53.106;18.046;2023-04-01T13:55:05;99522.27;;;8.89;73.31
76730;BME280;65653;53.106;18.046;2023-04-01T14:10:04;99545.66;;;8.29;75.21
76730;BME280;65653;53.106;18.046;2023-04-01T14:13:12;99544.91;;;8.27;75.68
76730;BME280;65653;53.106;18.046;2023-04-01T14:22:10;99554.67;;;8.10;75.36
76730;BME280;65653;53.106;18.046;2023-04-01T14:27:46;99558.07;;;8.06;76.09
76730;BME280;65653;53.106;18.046;2023-04-01T14:48:28;99582.44;;;7.57;76.77
76730;BME280;65653;53.106;18.046;2023-04-01T14:51:09;99589.40;;;7.51;76.80
76730;BME280;65653;53.106;18.046;2023-04-01T14:53:43;99594.39;;;7.44;76.38
76730;BME280;65653;53.106;18.046;2023-04-01T14:56:11;99600.58;;;7.34;76.92
76730;BME280;65653;53.106;18.046;2023-04-01T14:59:00;99598.04;;;7.31;77.04
76730;BME280;65653;53.106;18.046;2023-04-01T15:07:00;99621.89;;;6.98;77.41
76730;BME280;65653;53.106;18.046;2023-04-01T15:10:12;99622.95;;;6.94;77.96
76730;BME280;65653;53.106;18.046;2023-04-01T15:29:27;99651.46;;;6.74;78.43
76730;BME280;65653;53.106;18.046;2023-04-01T15:37:19;99672.94;;;6.58;78.42
76730;BME280;65653;53.106;18.046;2023-04-01T15:42:55;99680.45;;;6.38;78.60
76730;BME280;65653;53.106;18.046;2023-04-01T15:45:54;99686.55;;;6.30;78.78
76730;BME280;65653;53.106;18.046;2023-04-01T16:00:49;99701.27;;;5.98;79.50
76730;BME280;65653;53.106;18.046;2023-04-01T16:19:56;99733.30;;;5.53;79.63
76730;BME280;65653;53.106;18.046;2023-04-01T16:22:34;99739.21;;;5.50;79.92
76730;BME280;65653;53.106;18.046;2023-04-01T16:28:30;99751.75;;;5.42;80.75
76730;BME280;65653;53.106;18.046;2023-04-01T16:31:32;99754.23;;;5.40;80.83
76730;BME280;65653;53.106;18.046;2023-04-01T16:36:41;99765.05;;;5.25;81.07
76730;BME280;65653;53.106;18.046;2023-04-01T16:39:35;99768.98;;;5.15;81.17
76730;BME280;65653;53.106;18.046;2023-04-01T16:44:56;99779.20;;;5.04;81.08
76730;BME280;65653;53.106;18.046;2023-04-01T16:47:36;99783.71;;;4.94;81.43
76730;BME280;65653;53.106;18.046;2023-04-01T16:50:20;99790.31;;;4.93;81.60
76730;BME280;65653;53.106;18.046;2023-04-01T16:55:50;99798.60;;;4.86;81.89
76730;BME280;65653;53.106;18.046;2023-04-01T17:01:09;99807.17;;;4.75;82.06
76730;BME280;65653;53.106;18.046;2023-04-01T17:06:53;99816.98;;;4.64;82.03
76730;BME280;65653;53.106;18.046;2023-04-01T17:15:21;99832.16;;;4.47;82.22
76730;BME280;65653;53.106;18.046;2023-04-01T17:18:14;99834.30;;;4.43;82.31
76730;BME280;65653;53.106;18.046;2023-04-01T17:20:55;99835.56;;;4.38;82.26
76730;BME280;65653;53.106;18.046;2023-04-01T17:26:16;99843.08;;;4.33;82.23
76730;BME280;65653;53.106;18.046;2023-04-01T17:32:06;99851.75;;;4.28;82.28
76730;BME280;65653;53.106;18.046;2023-04-01T17:45:43;99884.05;;;4.20;82.22
76730;BME280;65653;53.106;18.046;2023-04-01T17:48:24;99885.31;;;4.12;81.76
76730;BME280;65653;53.106;18.046;2023-04-01T17:51:01;99893.55;;;4.06;81.89
76730;BME280;65653;53.106;18.046;2023-04-01T17:56:11;99901.66;;;3.98;82.38
76730;BME280;65653;53.106;18.046;2023-04-01T17:58:44;99910.02;;;3.94;82.55
76730;BME280;65653;53.106;18.046;2023-04-01T18:01:40;99910.42;;;3.91;82.79
76730;BME280;65653;53.106;18.046;2023-04-01T18:07:02;99918.81;;;3.85;83.31
76730;BME280;65653;53.106;18.046;2023-04-01T18:10:06;99923.61;;;3.80;83.90
76730;BME280;65653;53.106;18.046;2023-04-01T18:19:11;99935.54;;;3.66;85.69
76730;BME280;65653;53.106;18.046;2023-04-01T18:21:47;99941.90;;;3.63;85.72
76730;BME280;65653;53.106;18.046;2023-04-01T18:24:32;99946.73;;;3.60;85.89
76730;BME280;65653;53.106;18.046;2023-04-01T18:40:45;99976.93;;;3.41;86.42
76730;BME280;65653;53.106;18.046;2023-04-01T18:43:22;99975.30;;;3.38;86.61
76730;BME280;65653;53.106;18.046;2023-04-01T18:46:00;99979.24;;;3.35;86.81
76730;BME280;65653;53.106;18.046;2023-04-01T18:48:57;99976.29;;;3.31;86.86
76730;BME280;65653;53.106;18.046;2023-04-01T18:51:36;99982.29;;;3.26;86.65
76730;BME280;65653;53.106;18.046;2023-04-01T18:54:19;99982.81;;;3.22;86.83
76730;BME280;65653;53.106;18.046;2023-04-01T18:56:48;99992.45;;;3.18;87.39
76730;BME280;65653;53.106;18.046;2023-04-01T18:59:34;99993.91;;;3.14;87.37
76730;BME280;65653;53.106;18.046;2023-04-01T19:02:43;99993.52;;;3.15;87.61
76730;BME280;65653;53.106;18.046;2023-04-01T19:05:18;99998.36;;;3.14;87.80
76730;BME280;65653;53.106;18.046;2023-04-01T19:07:46;100006.75;;;3.12;87.79
76730;BME280;65653;53.106;18.046;2023-04-01T19:29:44;100038.16;;;3.04;88.49
76730;BME280;65653;53.106;18.046;2023-04-01T19:37:51;100049.10;;;3.02;88.25
76730;BME280;65653;53.106;18.046;2023-04-01T19:51:45;100065.10;;;2.99;88.68
76730;BME280;65653;53.106;18.046;2023-04-01T19:59:34;100076.23;;;2.97;88.83
76730;BME280;65653;53.106;18.046;2023-04-01T20:04:53;100076.38;;;2.92;89.29
76730;BME280;65653;53.106;18.046;2023-04-01T20:07:28;100083.58;;;2.89;89.13
76730;BME280;65653;53.106;18.046;2023-04-01T20:10:15;100085.36;;;2.88;89.16
76730;BME280;65653;53.106;18.046;2023-04-01T20:15:34;100093.13;;;2.79;89.16
76730;BME280;65653;53.106;18.046;2023-04-01T20:18:26;100095.40;;;2.76;89.43
76730;BME280;65653;53.106;18.046;2023-04-01T20:23:53;100106.92;;;2.68;89.46
76730;BME280;65653;53.106;18.046;2023-04-01T20:26:25;100108.14;;;2.65;89.38
76730;BME280;65653;53.106;18.046;2023-04-01T20:31:44;100113.60;;;2.61;89.49
76730;BME280;65653;53.106;18.046;2023-04-01T20:40:06;100118.99;;;2.55;89.97
76730;BME280;65653;53.106;18.046;2023-04-01T20:50:53;100126.75;;;2.52;89.73
76730;BME280;65653;53.106;18.046;2023-04-01T20:53:29;100127.81;;;2.54;89.77
76730;BME280;65653;53.106;18.046;2023-04-01T20:56:22;100131.95;;;2.55;89.52
76730;BME280;65653;53.106;18.046;2023-04-01T20:59:28;100134.17;;;2.58;89.55
76730;BME280;65653;53.106;18.046;2023-04-01T21:02:26;100136.88;;;2.61;89.29
76730;BME280;65653;53.106;18.046;2023-04-01T21:08:12;100146.63;;;2.68;88.90
76730;BME280;65653;53.106;18.046;2023-04-01T21:25:21;100161.64;;;2.74;88.02
76730;BME280;65653;53.106;18.046;2023-04-01T21:30:49;100166.25;;;2.75;87.91
76730;BME280;65653;53.106;18.046;2023-04-01T21:33:32;100174.83;;;2.77;87.68
76730;BME280;65653;53.106;18.046;2023-04-01T21:40:22;100175.60;;;2.80;87.73
76730;BME280;65653;53.106;18.046;2023-04-01T21:50:45;100183.86;;;2.83;87.73
76730;BME280;65653;53.106;18.046;2023-04-01T21:59:21;100187.92;;;2.79;87.76
76730;BME280;65653;53.106;18.046;2023-04-01T22:04:56;100192.49;;;2.78;87.81
76730;BME280;65653;53.106;18.046;2023-04-01T22:10:36;100194.06;;;2.81;87.63
76730;BME280;65653;53.106;18.046;2023-04-01T22:21:22;100205.13;;;2.85;87.43
76730;BME280;65653;53.106;18.046;2023-04-01T22:24:03;100207.42;;;2.87;87.42
76730;BME280;65653;53.106;18.046;2023-04-01T22:26:50;100208.08;;;2.88;87.45
76730;BME280;65653;53.106;18.046;2023-04-01T22:32:17;100217.77;;;2.88;87.18
76730;BME280;65653;53.106;18.046;2023-04-01T22:34:59;100220.54;;;2.91;87.34
76730;BME280;65653;53.106;18.046;2023-04-01T22:42:46;100226.92;;;2.94;87.26
76730;BME280;65653;53.106;18.046;2023-04-01T22:48:03;100235.27;;;2.89;87.33
76730;BME280;65653;53.106;18.046;2023-04-01T22:50:42;100240.11;;;2.87;87.20
76730;BME280;65653;53.106;18.046;2023-04-01T22:53:35;100243.22;;;2.86;87.11
76730;BME280;65653;53.106;18.046;2023-04-01T22:56:15;100246.56;;;2.83;86.93
76730;BME280;65653;53.106;18.046;2023-04-01T22:58:49;100249.48;;;2.79;86.78
76730;BME280;65653;53.106;18.046;2023-04-01T23:01:23;100245.66;;;2.78;86.51
76730;BME280;65653;53.106;18.046;2023-04-01T23:03:51;100250.04;;;2.76;86.34
76730;BME280;65653;53.106;18.046;2023-04-01T23:06:24;100251.31;;;2.73;85.89
76730;BME280;65653;53.106;18.046;2023-04-01T23:08:59;100251.73;;;2.70;86.08
76730;BME280;65653;53.106;18.046;2023-04-01T23:11:39;100253.80;;;2.67;86.08
76730;BME280;65653;53.106;18.046;2023-04-01T23:22:20;100258.50;;;2.64;86.41
76730;BME280;65653;53.106;18.046;2023-04-01T23:28:28;100263.86;;;2.65;86.27
76730;BME280;65653;53.106;18.046;2023-04-01T23:33:28;100275.25;;;2.64;86.32
76730;BME280;65653;53.106;18.046;2023-04-01T23:35:56;100275.35;;;2.63;86.27
76730;BME280;65653;53.106;18.046;2023-04-01T23:38:41;100277.38;;;2.64;86.46
76730;BME280;65653;53.106;18.046;2023-04-01T23:41:25;100283.42;;;2.64;86.43
76730;BME280;65653;53.106;18.046;2023-04-01T23:44:03;100286.12;;;2.64;86.32
76730;BME280;65653;53.106;18.046;2023-04-01T23:46:33;100289.06;;;2.66;86.38
76730;BME280;65653;53.106;18.046;2023-04-01T23:49:00;100293.92;;;2.68;86.50
76730;BME280;65653;53.106;18.046;2023-04-01T23:51:29;100302.61;;;2.69;86.37
76730;BME280;65653;53.106;18.046;2023-04-01T23:56:43;100305.10;;;2.66;86.36
76730;BME280;65653;53.106;18.046;2023-04-01T23:59:23;100306.98;;;2.65;86.31
